Burnwell, Kentucky
Current Conditions -  °F | °C
As of 3:15 AM on Monday 26 Jan 2015 (Local Time) from KPBX Reporting Station
Overcast Overcast  
Wind Chill: 41°   Ceiling: 5000
Heat Index: 41°   Visibility: 10mi
Dew Point: 37°   Wind: 3mph
Humidity: 83%   Direction: 90°E
Pressure: 29.61"   Gusts: NA
Location:  37.632°N, 82.2603°W
Report Text: KPBX 260815Z AUTO 09003KT 10SM SCT033 SCT042 OVC050 05/03 A2961 RMK AO2 T00520026
Loading
Personal Weather Stations






























Interactive Weather Map New forecast layout! Learn more

10-Day Weather Forecast

Advertisements
Track Severe Weather on mobile